sensor_id;sensor_type;location;lat;lon;timestamp;pressure;altitude;pressure_sealevel;temperature;humidity
967;BME280;56108;48.730;9.304;2023-05-07T00:01:03;97419.41;;;13.40;100.00
967;BME280;56108;48.730;9.304;2023-05-07T00:03:11;97420.16;;;13.42;100.00
967;BME280;56108;48.730;9.304;2023-05-07T00:05:19;97412.53;;;13.38;100.00
967;BME280;56108;48.730;9.304;2023-05-07T00:07:28;97414.13;;;13.29;100.00
967;BME280;56108;48.730;9.304;2023-05-07T00:09:36;97415.69;;;13.20;100.00
967;BME280;56108;48.730;9.304;2023-05-07T00:11:44;97418.88;;;13.14;100.00
967;BME280;56108;48.730;9.304;2023-05-07T00:13:55;97419.84;;;13.13;100.00
967;BME280;56108;48.730;9.304;2023-05-07T00:16:03;97417.69;;;13.07;100.00
967;BME280;56108;48.730;9.304;2023-05-07T00:18:11;97417.75;;;12.96;100.00
967;BME280;56108;48.730;9.304;2023-05-07T00:20:19;97407.66;;;12.88;100.00
967;BME280;56108;48.730;9.304;2023-05-07T00:22:28;97411.31;;;12.87;100.00
967;BME280;56108;48.730;9.304;2023-05-07T00:24:37;97409.63;;;12.86;100.00
967;BME280;56108;48.730;9.304;2023-05-07T00:26:45;97412.44;;;12.85;100.00
967;BME280;56108;48.730;9.304;2023-05-07T00:28:55;97399.31;;;12.82;100.00
967;BME280;56108;48.730;9.304;2023-05-07T00:31:03;97403.94;;;12.79;100.00
967;BME280;56108;48.730;9.304;2023-05-07T00:33:11;97401.97;;;12.82;100.00
967;BME280;56108;48.730;9.304;2023-05-07T00:35:20;97392.16;;;12.82;100.00
967;BME280;56108;48.730;9.304;2023-05-07T00:37:28;97393.03;;;12.71;100.00
967;BME280;56108;48.730;9.304;2023-05-07T00:39:36;97393.66;;;12.64;100.00
967;BME280;56108;48.730;9.304;2023-05-07T00:41:44;97397.06;;;12.54;100.00
967;BME280;56108;48.730;9.304;2023-05-07T00:43:55;97392.69;;;12.65;100.00
967;BME280;56108;48.730;9.304;2023-05-07T00:46:03;97391.47;;;12.58;100.00
967;BME280;56108;48.730;9.304;2023-05-07T00:48:12;97388.28;;;12.75;100.00
967;BME280;56108;48.730;9.304;2023-05-07T00:50:23;97395.09;;;12.79;100.00
967;BME280;56108;48.730;9.304;2023-05-07T00:52:31;97394.91;;;12.92;100.00
967;BME280;56108;48.730;9.304;2023-05-07T00:54:40;97385.31;;;12.89;100.00
967;BME280;56108;48.730;9.304;2023-05-07T00:56:49;97377.78;;;12.94;100.00
967;BME280;56108;48.730;9.304;2023-05-07T00:59:00;97379.91;;;12.79;100.00
967;BME280;56108;48.730;9.304;2023-05-07T01:01:08;97379.44;;;12.74;100.00
967;BME280;56108;48.730;9.304;2023-05-07T01:03:17;97370.47;;;12.64;100.00
967;BME280;56108;48.730;9.304;2023-05-07T01:05:27;97370.59;;;12.51;100.00
967;BME280;56108;48.730;9.304;2023-05-07T01:07:37;97370.13;;;12.46;100.00
967;BME280;56108;48.730;9.304;2023-05-07T01:09:46;97371.59;;;12.39;100.00
967;BME280;56108;48.730;9.304;2023-05-07T01:11:55;97374.88;;;12.43;100.00
967;BME280;56108;48.730;9.304;2023-05-07T01:14:07;97373.31;;;12.40;100.00
967;BME280;56108;48.730;9.304;2023-05-07T01:16:16;97372.31;;;12.52;100.00
967;BME280;56108;48.730;9.304;2023-05-07T01:18:25;97373.66;;;12.47;100.00
967;BME280;56108;48.730;9.304;2023-05-07T01:20:37;97378.50;;;12.64;100.00
967;BME280;56108;48.730;9.304;2023-05-07T01:22:49;97374.50;;;12.59;100.00
967;BME280;56108;48.730;9.304;2023-05-07T01:24:57;97374.50;;;12.47;100.00
967;BME280;56108;48.730;9.304;2023-05-07T01:27:08;97371.34;;;12.42;100.00
967;BME280;56108;48.730;9.304;2023-05-07T01:29:16;97370.50;;;12.53;100.00
967;BME280;56108;48.730;9.304;2023-05-07T01:31:25;97365.28;;;12.51;100.00
967;BME280;56108;48.730;9.304;2023-05-07T01:33:35;97368.91;;;12.50;100.00
967;BME280;56108;48.730;9.304;2023-05-07T01:35:45;97365.91;;;12.44;100.00
967;BME280;56108;48.730;9.304;2023-05-07T01:37:57;97359.97;;;12.29;100.00
967;BME280;56108;48.730;9.304;2023-05-07T01:40:06;97363.97;;;12.23;100.00
967;BME280;56108;48.730;9.304;2023-05-07T01:42:15;97366.88;;;12.20;100.00
967;BME280;56108;48.730;9.304;2023-05-07T01:44:24;97361.94;;;12.27;100.00
967;BME280;56108;48.730;9.304;2023-05-07T01:46:35;97357.66;;;12.24;100.00
967;BME280;56108;48.730;9.304;2023-05-07T01:48:43;97363.38;;;12.20;100.00
967;BME280;56108;48.730;9.304;2023-05-07T01:50:55;97355.88;;;12.14;100.00
967;BME280;56108;48.730;9.304;2023-05-07T01:53:06;97355.50;;;12.30;100.00
967;BME280;56108;48.730;9.304;2023-05-07T01:55:14;97357.56;;;12.15;100.00
967;BME280;56108;48.730;9.304;2023-05-07T01:57:22;97350.75;;;12.11;100.00
967;BME280;56108;48.730;9.304;2023-05-07T01:59:31;97350.66;;;12.12;100.00
967;BME280;56108;48.730;9.304;2023-05-07T02:01:39;97346.78;;;12.16;100.00
967;BME280;56108;48.730;9.304;2023-05-07T02:03:49;97348.97;;;12.22;100.00
967;BME280;56108;48.730;9.304;2023-05-07T02:06:01;97346.16;;;12.13;100.00
967;BME280;56108;48.730;9.304;2023-05-07T02:08:15;97340.94;;;12.00;100.00
967;BME280;56108;48.730;9.304;2023-05-07T02:10:23;97342.19;;;11.96;100.00
967;BME280;56108;48.730;9.304;2023-05-07T02:12:31;97344.09;;;12.05;100.00
967;BME280;56108;48.730;9.304;2023-05-07T02:14:39;97343.13;;;12.17;100.00
967;BME280;56108;48.730;9.304;2023-05-07T02:16:47;97347.03;;;12.02;100.00
967;BME280;56108;48.730;9.304;2023-05-07T02:18:56;97344.13;;;12.16;100.00
967;BME280;56108;48.730;9.304;2023-05-07T02:21:04;97346.88;;;12.15;100.00
967;BME280;56108;48.730;9.304;2023-05-07T02:23:15;97350.75;;;12.11;100.00
967;BME280;56108;48.730;9.304;2023-05-07T02:25:24;97352.56;;;12.21;100.00
967;BME280;56108;48.730;9.304;2023-05-07T02:27:32;97356.72;;;12.14;100.00
967;BME280;56108;48.730;9.304;2023-05-07T02:29:40;97352.84;;;11.96;100.00
967;BME280;56108;48.730;9.304;2023-05-07T02:31:48;97350.91;;;11.87;100.00
967;BME280;56108;48.730;9.304;2023-05-07T02:33:57;97350.50;;;11.80;100.00
967;BME280;56108;48.730;9.304;2023-05-07T02:36:07;97351.97;;;11.84;100.00
967;BME280;56108;48.730;9.304;2023-05-07T02:38:26;97347.47;;;11.85;100.00
967;BME280;56108;48.730;9.304;2023-05-07T02:40:34;97343.44;;;11.79;100.00
967;BME280;56108;48.730;9.304;2023-05-07T02:42:43;97346.88;;;11.81;100.00
967;BME280;56108;48.730;9.304;2023-05-07T02:44:51;97334.88;;;11.75;100.00
967;BME280;56108;48.730;9.304;2023-05-07T02:46:59;97334.25;;;11.72;100.00
967;BME280;56108;48.730;9.304;2023-05-07T02:49:09;97339.44;;;11.73;100.00
967;BME280;56108;48.730;9.304;2023-05-07T02:51:19;97332.38;;;11.85;100.00
967;BME280;56108;48.730;9.304;2023-05-07T02:53:34;97339.94;;;11.79;100.00
967;BME280;56108;48.730;9.304;2023-05-07T02:55:41;97339.34;;;11.75;100.00
967;BME280;56108;48.730;9.304;2023-05-07T02:57:50;97336.66;;;11.64;100.00
967;BME280;56108;48.730;9.304;2023-05-07T02:59:58;97335.03;;;11.85;100.00
967;BME280;56108;48.730;9.304;2023-05-07T03:02:09;97343.94;;;11.73;100.00
967;BME280;56108;48.730;9.304;2023-05-07T03:04:17;97340.06;;;11.77;100.00
967;BME280;56108;48.730;9.304;2023-05-07T03:06:25;97341.97;;;11.64;100.00
967;BME280;56108;48.730;9.304;2023-05-07T03:08:36;97336.28;;;11.57;100.00
967;BME280;56108;48.730;9.304;2023-05-07T03:10:44;97329.97;;;11.47;100.00
967;BME280;56108;48.730;9.304;2023-05-07T03:12:52;97328.16;;;11.47;100.00
967;BME280;56108;48.730;9.304;2023-05-07T03:15:00;97316.41;;;11.39;100.00
967;BME280;56108;48.730;9.304;2023-05-07T03:17:08;97304.66;;;11.41;100.00
967;BME280;56108;48.730;9.304;2023-05-07T03:19:16;97302.47;;;11.35;100.00
967;BME280;56108;48.730;9.304;2023-05-07T03:21:24;97300.28;;;11.29;100.00
967;BME280;56108;48.730;9.304;2023-05-07T03:23:32;97295.19;;;11.26;100.00
967;BME280;56108;48.730;9.304;2023-05-07T03:25:43;97289.34;;;11.21;100.00
967;BME280;56108;48.730;9.304;2023-05-07T03:27:51;97289.59;;;11.18;100.00
967;BME280;56108;48.730;9.304;2023-05-07T03:30:02;97285.63;;;11.23;100.00
967;BME280;56108;48.730;9.304;2023-05-07T03:32:11;97284.53;;;11.26;100.00
967;BME280;56108;48.730;9.304;2023-05-07T03:34:19;97289.25;;;11.22;100.00
967;BME280;56108;48.730;9.304;2023-05-07T03:36:28;97287.19;;;11.26;100.00
967;BME280;56108;48.730;9.304;2023-05-07T03:38:36;97288.50;;;11.20;100.00
967;BME280;56108;48.730;9.304;2023-05-07T03:40:47;97288.50;;;11.20;100.00
967;BME280;56108;48.730;9.304;2023-05-07T03:42:55;97295.78;;;11.18;100.00
967;BME280;56108;48.730;9.304;2023-05-07T03:45:06;97297.25;;;11.22;100.00
967;BME280;56108;48.730;9.304;2023-05-07T03:47:18;97299.28;;;11.19;100.00
967;BME280;56108;48.730;9.304;2023-05-07T03:49:26;97303.38;;;11.12;100.00
967;BME280;56108;48.730;9.304;2023-05-07T03:51:34;97294.28;;;11.03;100.00
967;BME280;56108;48.730;9.304;2023-05-07T03:53:45;97286.78;;;10.97;100.00
967;BME280;56108;48.730;9.304;2023-05-07T03:55:55;97290.84;;;10.90;100.00
967;BME280;56108;48.730;9.304;2023-05-07T03:58:05;97287.13;;;10.92;100.00
967;BME280;56108;48.730;9.304;2023-05-07T04:00:15;97289.88;;;10.91;100.00
967;BME280;56108;48.730;9.304;2023-05-07T04:02:24;97287.16;;;11.04;100.00
967;BME280;56108;48.730;9.304;2023-05-07T04:04:33;97296.28;;;11.23;100.00
967;BME280;56108;48.730;9.304;2023-05-07T04:06:42;97301.25;;;11.28;100.00
967;BME280;56108;48.730;9.304;2023-05-07T04:08:50;97308.75;;;11.23;100.00
967;BME280;56108;48.730;9.304;2023-05-07T04:11:01;97303.66;;;11.20;100.00
967;BME280;56108;48.730;9.304;2023-05-07T04:13:10;97301.59;;;11.23;100.00
967;BME280;56108;48.730;9.304;2023-05-07T04:15:19;97303.06;;;11.28;100.00
967;BME280;56108;48.730;9.304;2023-05-07T04:17:28;97306.09;;;11.23;100.00
967;BME280;56108;48.730;9.304;2023-05-07T04:19:37;97304.13;;;11.25;100.00
967;BME280;56108;48.730;9.304;2023-05-07T04:21:52;97304.63;;;11.30;100.00
967;BME280;56108;48.730;9.304;2023-05-07T04:24:02;97303.31;;;11.36;100.00
967;BME280;56108;48.730;9.304;2023-05-07T04:26:13;97311.31;;;11.47;100.00
967;BME280;56108;48.730;9.304;2023-05-07T04:28:22;97308.22;;;11.64;100.00
967;BME280;56108;48.730;9.304;2023-05-07T04:30:31;97321.69;;;11.96;100.00
967;BME280;56108;48.730;9.304;2023-05-07T04:32:41;97331.06;;;12.45;100.00
967;BME280;56108;48.730;9.304;2023-05-07T04:34:49;97350.88;;;12.86;100.00
967;BME280;56108;48.730;9.304;2023-05-07T04:36:58;97373.44;;;13.46;100.00
967;BME280;56108;48.730;9.304;2023-05-07T04:39:07;97402.22;;;14.47;100.00
967;BME280;56108;48.730;9.304;2023-05-07T04:41:21;97407.13;;;15.50;100.00
967;BME280;56108;48.730;9.304;2023-05-07T04:43:29;97405.78;;;16.22;100.00
967;BME280;56108;48.730;9.304;2023-05-07T04:45:38;97413.81;;;16.59;100.00
967;BME280;56108;48.730;9.304;2023-05-07T04:47:46;97411.66;;;16.45;100.00
967;BME280;56108;48.730;9.304;2023-05-07T04:49:55;97412.91;;;16.04;100.00
967;BME280;56108;48.730;9.304;2023-05-07T04:52:04;97417.44;;;15.45;100.00
967;BME280;56108;48.730;9.304;2023-05-07T04:54:14;97416.16;;;15.01;100.00
967;BME280;56108;48.730;9.304;2023-05-07T04:56:27;97414.66;;;14.58;100.00
967;BME280;56108;48.730;9.304;2023-05-07T04:58:38;97418.34;;;14.36;100.00
967;BME280;56108;48.730;9.304;2023-05-07T05:00:46;97419.22;;;14.16;100.00
967;BME280;56108;48.730;9.304;2023-05-07T05:02:54;97415.78;;;13.83;100.00
967;BME280;56108;48.730;9.304;2023-05-07T05:05:08;97407.75;;;13.62;100.00
967;BME280;56108;48.730;9.304;2023-05-07T05:07:18;97417.59;;;13.62;100.00
967;BME280;56108;48.730;9.304;2023-05-07T05:09:26;97416.97;;;13.90;100.00
967;BME280;56108;48.730;9.304;2023-05-07T05:11:37;97411.31;;;14.45;100.00
967;BME280;56108;48.730;9.304;2023-05-07T05:13:46;97424.50;;;15.17;100.00
967;BME280;56108;48.730;9.304;2023-05-07T05:15:58;97436.94;;;15.37;100.00
967;BME280;56108;48.730;9.304;2023-05-07T05:18:10;97453.97;;;15.17;100.00
967;BME280;56108;48.730;9.304;2023-05-07T05:20:18;97438.84;;;14.97;100.00
967;BME280;56108;48.730;9.304;2023-05-07T05:22:26;97443.16;;;14.69;100.00
967;BME280;56108;48.730;9.304;2023-05-07T05:24:38;97439.72;;;14.57;100.00
967;BME280;56108;48.730;9.304;2023-05-07T05:26:49;97440.88;;;15.14;100.00
967;BME280;56108;48.730;9.304;2023-05-07T05:28:57;97448.88;;;16.67;100.00
967;BME280;56108;48.730;9.304;2023-05-07T05:31:08;97449.09;;;18.44;86.22
967;BME280;56108;48.730;9.304;2023-05-07T05:33:19;97477.22;;;20.67;69.17
967;BME280;56108;48.730;9.304;2023-05-07T05:35:27;97499.94;;;22.44;58.76
967;BME280;56108;48.730;9.304;2023-05-07T05:37:39;97524.72;;;23.53;53.10
967;BME280;56108;48.730;9.304;2023-05-07T05:39:47;97546.34;;;24.83;48.40
967;BME280;56108;48.730;9.304;2023-05-07T05:41:58;97555.16;;;25.89;45.31
967;BME280;56108;48.730;9.304;2023-05-07T05:44:07;97562.28;;;26.71;43.27
967;BME280;56108;48.730;9.304;2023-05-07T05:46:16;97559.25;;;24.74;45.92
967;BME280;56108;48.730;9.304;2023-05-07T05:48:28;97539.69;;;24.36;47.80
967;BME280;56108;48.730;9.304;2023-05-07T05:50:38;97544.06;;;25.08;45.43
967;BME280;56108;48.730;9.304;2023-05-07T05:52:47;97569.25;;;24.03;43.99
967;BME280;56108;48.730;9.304;2023-05-07T05:54:57;97560.69;;;24.27;44.10
967;BME280;56108;48.730;9.304;2023-05-07T05:57:08;97561.47;;;25.89;41.81
967;BME280;56108;48.730;9.304;2023-05-07T05:59:17;97569.38;;;27.38;40.24
967;BME280;56108;48.730;9.304;2023-05-07T06:01:26;97583.44;;;27.48;38.10
967;BME280;56108;48.730;9.304;2023-05-07T06:03:37;97573.00;;;26.66;40.07
967;BME280;56108;48.730;9.304;2023-05-07T06:05:50;97571.34;;;25.90;40.36
967;BME280;56108;48.730;9.304;2023-05-07T06:07:59;97578.25;;;27.07;40.59
967;BME280;56108;48.730;9.304;2023-05-07T06:10:10;97597.03;;;27.88;37.49
967;BME280;56108;48.730;9.304;2023-05-07T06:12:21;97603.41;;;28.14;36.26
967;BME280;56108;48.730;9.304;2023-05-07T06:14:29;97592.53;;;27.02;38.74
967;BME280;56108;48.730;9.304;2023-05-07T06:16:38;97570.78;;;27.74;38.31
967;BME280;56108;48.730;9.304;2023-05-07T06:18:46;97557.16;;;27.54;37.78
967;BME280;56108;48.730;9.304;2023-05-07T06:20:55;97550.50;;;28.33;38.25
967;BME280;56108;48.730;9.304;2023-05-07T06:23:07;97556.59;;;29.17;36.42
967;BME280;56108;48.730;9.304;2023-05-07T06:25:15;97561.94;;;29.48;36.33
967;BME280;56108;48.730;9.304;2023-05-07T06:27:26;97558.06;;;28.38;37.85
967;BME280;56108;48.730;9.304;2023-05-07T06:29:34;97545.19;;;25.68;42.04
967;BME280;56108;48.730;9.304;2023-05-07T06:31:49;97538.84;;;25.13;43.28
967;BME280;56108;48.730;9.304;2023-05-07T06:33:57;97545.88;;;26.44;41.48
967;BME280;56108;48.730;9.304;2023-05-07T06:36:15;97550.34;;;27.70;39.46
967;BME280;56108;48.730;9.304;2023-05-07T06:38:23;97557.16;;;27.54;37.76
967;BME280;56108;48.730;9.304;2023-05-07T06:40:31;97547.59;;;27.12;39.50
967;BME280;56108;48.730;9.304;2023-05-07T06:42:42;97553.47;;;27.15;39.53
967;BME280;56108;48.730;9.304;2023-05-07T06:45:13;97546.31;;;26.54;41.42
967;BME280;56108;48.730;9.304;2023-05-07T06:47:23;97545.78;;;26.05;42.35
967;BME280;56108;48.730;9.304;2023-05-07T06:49:32;97542.19;;;25.43;43.57
967;BME280;56108;48.730;9.304;2023-05-07T06:51:40;97545.47;;;24.76;43.69
967;BME280;56108;48.730;9.304;2023-05-07T06:53:49;97534.47;;;23.32;46.36
967;BME280;56108;48.730;9.304;2023-05-07T06:56:00;97522.00;;;22.41;50.02
967;BME280;56108;48.730;9.304;2023-05-07T06:58:11;97515.16;;;22.30;51.85
967;BME280;56108;48.730;9.304;2023-05-07T07:00:20;97522.19;;;23.51;49.22
967;BME280;56108;48.730;9.304;2023-05-07T07:02:31;97535.19;;;24.71;46.25
967;BME280;56108;48.730;9.304;2023-05-07T07:04:39;97533.34;;;25.41;43.36
967;BME280;56108;48.730;9.304;2023-05-07T07:06:48;97544.06;;;24.58;44.54
967;BME280;56108;48.730;9.304;2023-05-07T07:08:56;97544.63;;;26.93;40.61
967;BME280;56108;48.730;9.304;2023-05-07T07:11:05;97542.13;;;25.77;41.64
967;BME280;56108;48.730;9.304;2023-05-07T07:13:16;97527.72;;;24.80;44.00
967;BME280;56108;48.730;9.304;2023-05-07T07:15:24;97538.97;;;27.15;40.16
967;BME280;56108;48.730;9.304;2023-05-07T07:17:33;97552.13;;;28.97;36.31
967;BME280;56108;48.730;9.304;2023-05-07T07:19:42;97545.47;;;27.07;38.69
967;BME280;56108;48.730;9.304;2023-05-07T07:21:50;97538.06;;;26.35;40.85
967;BME280;56108;48.730;9.304;2023-05-07T07:23:58;97551.09;;;27.39;38.58
967;BME280;56108;48.730;9.304;2023-05-07T07:26:06;97546.31;;;27.14;37.98
967;BME280;56108;48.730;9.304;2023-05-07T07:28:16;97540.06;;;25.86;42.09
967;BME280;56108;48.730;9.304;2023-05-07T07:30:25;97541.22;;;28.41;38.02
967;BME280;56108;48.730;9.304;2023-05-07T07:32:34;97535.81;;;26.51;40.05
967;BME280;56108;48.730;9.304;2023-05-07T07:34:42;97537.56;;;29.03;37.47
967;BME280;56108;48.730;9.304;2023-05-07T07:36:50;97564.00;;;31.45;32.15
967;BME280;56108;48.730;9.304;2023-05-07T07:38:58;97554.31;;;29.14;35.05
967;BME280;56108;48.730;9.304;2023-05-07T07:41:07;97551.09;;;29.60;36.00
967;BME280;56108;48.730;9.304;2023-05-07T07:43:18;97546.94;;;29.14;35.68
967;BME280;56108;48.730;9.304;2023-05-07T07:45:26;97537.25;;;26.41;40.42
967;BME280;56108;48.730;9.304;2023-05-07T07:47:34;97538.06;;;27.99;38.94
967;BME280;56108;48.730;9.304;2023-05-07T07:49:42;97542.22;;;27.50;38.53
967;BME280;56108;48.730;9.304;2023-05-07T07:51:50;97543.16;;;27.30;38.94
967;BME280;56108;48.730;9.304;2023-05-07T07:53:58;97535.59;;;26.99;41.36
967;BME280;56108;48.730;9.304;2023-05-07T07:56:09;97540.00;;;27.27;39.90
967;BME280;56108;48.730;9.304;2023-05-07T07:58:20;97534.13;;;26.50;41.62
967;BME280;56108;48.730;9.304;2023-05-07T08:00:30;97517.38;;;25.31;46.11
967;BME280;56108;48.730;9.304;2023-05-07T08:02:38;97526.31;;;25.60;45.51
967;BME280;56108;48.730;9.304;2023-05-07T08:04:48;97525.44;;;26.00;44.22
967;BME280;56108;48.730;9.304;2023-05-07T08:06:56;97533.63;;;26.07;43.73
967;BME280;56108;48.730;9.304;2023-05-07T08:09:06;97528.78;;;26.02;44.23
967;BME280;56108;48.730;9.304;2023-05-07T08:11:16;97525.88;;;25.63;44.09
967;BME280;56108;48.730;9.304;2023-05-07T08:13:27;97518.28;;;25.93;45.97
967;BME280;56108;48.730;9.304;2023-05-07T08:15:36;97520.38;;;26.04;45.76
967;BME280;56108;48.730;9.304;2023-05-07T08:17:45;97519.75;;;25.47;45.67
967;BME280;56108;48.730;9.304;2023-05-07T08:19:53;97519.91;;;24.70;48.29
967;BME280;56108;48.730;9.304;2023-05-07T08:22:00;97520.03;;;25.18;47.63
967;BME280;56108;48.730;9.304;2023-05-07T08:24:09;97516.56;;;25.03;48.51
967;BME280;56108;48.730;9.304;2023-05-07T08:26:17;97523.81;;;23.97;48.80
967;BME280;56108;48.730;9.304;2023-05-07T08:28:28;97501.94;;;22.65;52.00
967;BME280;56108;48.730;9.304;2023-05-07T08:30:36;97508.56;;;21.79;53.74
967;BME280;56108;48.730;9.304;2023-05-07T08:32:44;97499.69;;;22.54;54.81
967;BME280;56108;48.730;9.304;2023-05-07T08:34:52;97506.38;;;23.40;55.14
967;BME280;56108;48.730;9.304;2023-05-07T08:37:00;97514.91;;;23.88;52.66
967;BME280;56108;48.730;9.304;2023-05-07T08:39:10;97521.88;;;24.12;50.24
967;BME280;56108;48.730;9.304;2023-05-07T08:41:18;97509.50;;;24.09;51.95
967;BME280;56108;48.730;9.304;2023-05-07T08:43:32;97513.19;;;24.02;52.04
967;BME280;56108;48.730;9.304;2023-05-07T08:45:41;97509.88;;;24.28;52.06
967;BME280;56108;48.730;9.304;2023-05-07T08:47:52;97506.97;;;24.51;51.70
967;BME280;56108;48.730;9.304;2023-05-07T08:50:05;97509.88;;;22.89;51.05
967;BME280;56108;48.730;9.304;2023-05-07T08:52:14;97510.16;;;22.95;52.22
967;BME280;56108;48.730;9.304;2023-05-07T08:54:26;97504.59;;;22.73;53.82
967;BME280;56108;48.730;9.304;2023-05-07T08:56:35;97503.84;;;22.27;55.78
967;BME280;56108;48.730;9.304;2023-05-07T08:58:49;97503.59;;;22.89;55.46
967;BME280;56108;48.730;9.304;2023-05-07T09:01:05;97515.25;;;23.49;52.94
967;BME280;56108;48.730;9.304;2023-05-07T09:03:15;97508.31;;;23.76;53.18
967;BME280;56108;48.730;9.304;2023-05-07T09:05:27;97513.44;;;24.78;49.44
967;BME280;56108;48.730;9.304;2023-05-07T09:07:36;97524.03;;;25.22;46.60
967;BME280;56108;48.730;9.304;2023-05-07T09:09:44;97518.97;;;26.41;45.25
967;BME280;56108;48.730;9.304;2023-05-07T09:11:57;97547.13;;;28.31;40.66
967;BME280;56108;48.730;9.304;2023-05-07T09:14:11;97542.97;;;29.10;38.99
967;BME280;56108;48.730;9.304;2023-05-07T09:16:21;97546.50;;;30.39;37.07
967;BME280;56108;48.730;9.304;2023-05-07T09:18:30;97536.09;;;30.83;35.56
967;BME280;56108;48.730;9.304;2023-05-07T09:20:39;97529.19;;;32.03;34.69
967;BME280;56108;48.730;9.304;2023-05-07T09:22:48;97520.38;;;28.65;36.79
967;BME280;56108;48.730;9.304;2023-05-07T09:24:57;97516.47;;;27.84;38.20
967;BME280;56108;48.730;9.304;2023-05-07T09:27:06;97504.84;;;29.08;38.11
967;BME280;56108;48.730;9.304;2023-05-07T09:29:22;97512.47;;;28.75;37.65
967;BME280;56108;48.730;9.304;2023-05-07T09:31:31;97503.25;;;27.74;39.60
967;BME280;56108;48.730;9.304;2023-05-07T09:33:39;97507.25;;;27.72;38.78
967;BME280;56108;48.730;9.304;2023-05-07T09:35:51;97503.28;;;28.94;37.77
967;BME280;56108;48.730;9.304;2023-05-07T09:38:01;97493.56;;;27.00;41.79
967;BME280;56108;48.730;9.304;2023-05-07T09:40:20;97500.59;;;27.99;39.00
967;BME280;56108;48.730;9.304;2023-05-07T09:42:30;97497.38;;;27.77;39.93
967;BME280;56108;48.730;9.304;2023-05-07T09:44:43;97497.41;;;28.41;38.44
967;BME280;56108;48.730;9.304;2023-05-07T09:46:57;97495.06;;;30.46;36.10
967;BME280;56108;48.730;9.304;2023-05-07T09:49:20;97494.22;;;28.44;38.39
967;BME280;56108;48.730;9.304;2023-05-07T09:51:38;97493.66;;;27.52;39.13
967;BME280;56108;48.730;9.304;2023-05-07T09:53:50;97486.88;;;26.90;40.90
967;BME280;56108;48.730;9.304;2023-05-07T09:56:02;97489.22;;;28.84;38.78
967;BME280;56108;48.730;9.304;2023-05-07T09:58:12;97493.91;;;29.02;38.62
967;BME280;56108;48.730;9.304;2023-05-07T10:00:25;97493.19;;;29.50;36.36
967;BME280;56108;48.730;9.304;2023-05-07T10:02:43;97499.31;;;30.30;35.30
967;BME280;56108;48.730;9.304;2023-05-07T10:04:57;97500.94;;;28.98;34.90
967;BME280;56108;48.730;9.304;2023-05-07T10:07:09;97505.38;;;28.92;37.18
967;BME280;56108;48.730;9.304;2023-05-07T10:09:19;97502.09;;;29.63;37.03
967;BME280;56108;48.730;9.304;2023-05-07T10:11:28;97498.84;;;30.33;35.32
967;BME280;56108;48.730;9.304;2023-05-07T10:13:37;97488.31;;;28.90;36.31
967;BME280;56108;48.730;9.304;2023-05-07T10:15:50;97486.94;;;28.81;37.55
967;BME280;56108;48.730;9.304;2023-05-07T10:17:59;97486.69;;;28.32;37.15
967;BME280;56108;48.730;9.304;2023-05-07T10:20:08;97482.94;;;28.58;36.96
967;BME280;56108;48.730;9.304;2023-05-07T10:22:20;97473.31;;;29.36;37.45
967;BME280;56108;48.730;9.304;2023-05-07T10:24:32;97471.66;;;29.35;36.51
967;BME280;56108;48.730;9.304;2023-05-07T10:26:50;97465.81;;;28.88;37.41
967;BME280;56108;48.730;9.304;2023-05-07T10:29:03;97471.09;;;29.26;35.22
967;BME280;56108;48.730;9.304;2023-05-07T10:31:25;97473.97;;;30.17;34.96
967;BME280;56108;48.730;9.304;2023-05-07T10:33:39;97466.31;;;29.88;35.62
967;BME280;56108;48.730;9.304;2023-05-07T10:35:48;97464.72;;;29.81;35.35
967;BME280;56108;48.730;9.304;2023-05-07T10:37:56;97468.09;;;29.83;34.91
967;BME280;56108;48.730;9.304;2023-05-07T10:40:10;97461.19;;;29.07;35.54
967;BME280;56108;48.730;9.304;2023-05-07T10:42:19;97465.09;;;28.99;33.92
967;BME280;56108;48.730;9.304;2023-05-07T10:44:30;97455.41;;;29.52;36.29
967;BME280;56108;48.730;9.304;2023-05-07T10:47:04;97462.63;;;29.64;35.99
967;BME280;56108;48.730;9.304;2023-05-07T10:49:16;97449.84;;;29.22;35.89
967;BME280;56108;48.730;9.304;2023-05-07T10:51:42;97464.38;;;28.04;36.30
967;BME280;56108;48.730;9.304;2023-05-07T10:54:22;97462.59;;;28.48;35.13
967;BME280;56108;48.730;9.304;2023-05-07T10:56:41;97452.56;;;27.20;36.58
967;BME280;56108;48.730;9.304;2023-05-07T10:58:56;97452.63;;;27.97;38.30
967;BME280;56108;48.730;9.304;2023-05-07T11:01:52;97442.50;;;28.04;36.38
967;BME280;56108;48.730;9.304;2023-05-07T11:04:14;97443.16;;;26.83;37.78
967;BME280;56108;48.730;9.304;2023-05-07T11:06:38;97433.22;;;25.56;42.28
967;BME280;56108;48.730;9.304;2023-05-07T11:08:54;97427.31;;;25.39;42.81
967;BME280;56108;48.730;9.304;2023-05-07T11:11:16;97431.56;;;25.62;42.77
967;BME280;56108;48.730;9.304;2023-05-07T11:13:42;97426.44;;;26.26;41.79
967;BME280;56108;48.730;9.304;2023-05-07T11:16:16;97431.88;;;26.07;38.73
967;BME280;56108;48.730;9.304;2023-05-07T11:18:46;97428.19;;;27.19;40.15
967;BME280;56108;48.730;9.304;2023-05-07T11:21:00;97429.00;;;27.77;38.90
967;BME280;56108;48.730;9.304;2023-05-07T11:23:57;97427.75;;;27.73;37.68
967;BME280;56108;48.730;9.304;2023-05-07T11:26:12;97429.66;;;27.21;37.12
967;BME280;56108;48.730;9.304;2023-05-07T11:28:20;97421.13;;;26.78;38.29
967;BME280;56108;48.730;9.304;2023-05-07T11:30:41;97418.03;;;26.01;38.92
967;BME280;56108;48.730;9.304;2023-05-07T11:32:53;97418.63;;;26.70;39.92
967;BME280;56108;48.730;9.304;2023-05-07T11:35:04;97423.63;;;26.99;39.34
967;BME280;56108;48.730;9.304;2023-05-07T11:37:16;97427.28;;;27.83;39.79
967;BME280;56108;48.730;9.304;2023-05-07T11:39:31;97415.28;;;26.68;38.24
967;BME280;56108;48.730;9.304;2023-05-07T11:41:47;97414.13;;;25.49;40.69
967;BME280;56108;48.730;9.304;2023-05-07T11:43:58;97408.75;;;25.89;40.07
967;BME280;56108;48.730;9.304;2023-05-07T11:46:08;97401.00;;;25.99;40.63
967;BME280;56108;48.730;9.304;2023-05-07T11:48:17;97407.09;;;25.88;39.34